createdAt,value
2018-10-01T00:01:05.816Z,99660.67
2018-10-01T00:03:34.946Z,99666.00
2018-10-01T00:06:03.870Z,99663.05
2018-10-01T00:08:32.889Z,99667.55
2018-10-01T00:11:01.950Z,99676.89
2018-10-01T00:13:31.031Z,99678.22
2018-10-01T00:16:00.013Z,99681.91
2018-10-01T00:18:28.995Z,99669.67
2018-10-01T00:21:03.456Z,99679.53
2018-10-01T00:23:32.501Z,99679.25
2018-10-01T00:26:01.538Z,99669.92
2018-10-01T00:28:35.288Z,99658.98
2018-10-01T00:31:04.286Z,99663.52
2018-10-01T00:33:33.262Z,99665.93
2018-10-01T00:36:02.392Z,99662.48
2018-10-01T00:38:31.451Z,99667.02
2018-10-01T00:41:01.343Z,99659.52
2018-10-01T00:43:30.504Z,99656.85
2018-10-01T00:45:59.499Z,99650.95
2018-10-01T00:48:28.453Z,99642.47
2018-10-01T00:50:57.466Z,99638.72
2018-10-01T00:53:26.469Z,99642.19
2018-10-01T00:55:55.452Z,99635.28
2018-10-01T00:58:24.430Z,99630.73
2018-10-01T01:00:53.441Z,99631.73
2018-10-01T01:03:22.450Z,99634.37
2018-10-01T01:05:51.450Z,99633.53
2018-10-01T01:08:20.433Z,99636.70
2018-10-01T01:10:49.453Z,99636.46
2018-10-01T01:13:19.549Z,99636.95
2018-10-01T01:15:48.521Z,99632.74
2018-10-01T01:18:17.531Z,99634.30
2018-10-01T01:20:46.522Z,99637.45
2018-10-01T01:23:15.534Z,99630.52
2018-10-01T01:25:44.527Z,99627.58
2018-10-01T01:28:13.524Z,99628.37
2018-10-01T01:30:42.561Z,99627.30
2018-10-01T01:33:11.609Z,99629.92
2018-10-01T01:35:43.832Z,99630.73
2018-10-01T01:38:14.637Z,99628.57
2018-10-01T01:40:43.618Z,99623.28
2018-10-01T01:43:12.598Z,99619.03
2018-10-01T01:45:41.597Z,99619.26
2018-10-01T01:48:10.574Z,99619.19
2018-10-01T01:50:39.556Z,99617.38
2018-10-01T01:53:10.072Z,99613.91
2018-10-01T01:55:39.610Z,99605.41
2018-10-01T01:58:08.921Z,99613.04
2018-10-01T02:00:37.918Z,99611.51
2018-10-01T02:03:06.979Z,99609.66
2018-10-01T02:05:35.977Z,99609.14
2018-10-01T02:08:04.997Z,99606.73
2018-10-01T02:10:33.994Z,99605.05
2018-10-01T02:13:02.982Z,99600.52
2018-10-01T02:15:31.991Z,99602.38
2018-10-01T02:18:00.956Z,99609.82
2018-10-01T02:20:30.011Z,99608.22
2018-10-01T02:22:59.236Z,99602.63
2018-10-01T02:25:28.245Z,99604.49
2018-10-01T02:27:57.312Z,99597.03
2018-10-01T02:30:26.387Z,99593.61
2018-10-01T02:32:55.364Z,99593.84
2018-10-01T02:35:24.395Z,99593.06
2018-10-01T02:37:53.440Z,99591.72
2018-10-01T02:40:22.475Z,99584.76
2018-10-01T02:42:51.822Z,99588.73
2018-10-01T02:45:20.851Z,99580.17
2018-10-01T02:47:49.972Z,99581.51
2018-10-01T02:50:18.978Z,99581.05
2018-10-01T02:52:53.548Z,99577.06
2018-10-01T02:55:22.620Z,99566.73
2018-10-01T02:57:51.685Z,99575.51
2018-10-01T03:00:20.778Z,99573.67
2018-10-01T03:02:49.748Z,99579.55
2018-10-01T03:05:19.242Z,99576.84
2018-10-01T03:07:48.223Z,99573.43
2018-10-01T03:10:17.220Z,99568.20
2018-10-01T03:12:46.236Z,99570.85
2018-10-01T03:15:15.245Z,99566.56
2018-10-01T03:17:44.247Z,99564.66
2018-10-01T03:20:13.371Z,99563.84
2018-10-01T03:22:42.419Z,99561.45
2018-10-01T03:25:11.401Z,99551.10
2018-10-01T03:27:40.422Z,99554.77
2018-10-01T03:30:09.494Z,99548.38
2018-10-01T03:32:38.488Z,99547.11
2018-10-01T03:35:07.466Z,99548.14
2018-10-01T03:37:36.552Z,99542.05
2018-10-01T03:40:05.764Z,99544.70
2018-10-01T03:42:34.765Z,99546.06
2018-10-01T03:45:03.761Z,99538.84
2018-10-01T03:47:32.770Z,99530.87
2018-10-01T03:50:01.813Z,99533.29
2018-10-01T03:52:30.811Z,99533.53
2018-10-01T03:54:59.837Z,99535.95
2018-10-01T03:57:28.901Z,99537.55
2018-10-01T03:59:57.925Z,99537.25
2018-10-01T04:02:26.962Z,99529.53
2018-10-01T04:04:57.045Z,99530.87
2018-10-01T04:07:26.082Z,99538.38
2018-10-01T04:09:55.201Z,99534.11
2018-10-01T04:12:24.241Z,99535.52
2018-10-01T04:14:53.280Z,99532.66
2018-10-01T04:17:22.310Z,99528.39
2018-10-01T04:19:51.428Z,99531.62
2018-10-01T04:22:24.651Z,99532.48
2018-10-01T04:24:53.694Z,99529.07
2018-10-01T04:27:22.770Z,99520.32
2018-10-01T04:29:51.855Z,99528.88
2018-10-01T04:32:21.660Z,99534.25
2018-10-01T04:34:50.727Z,99532.66
2018-10-01T04:37:19.668Z,99531.88
2018-10-01T04:39:48.671Z,99526.55
2018-10-01T04:42:17.699Z,99532.16
2018-10-01T04:44:47.682Z,99538.02
2018-10-01T04:47:16.729Z,99553.16
2018-10-01T04:49:45.684Z,99548.09
2018-10-01T04:52:15.473Z,99544.66
2018-10-01T04:54:45.799Z,99547.86
2018-10-01T04:57:15.854Z,99553.44
2018-10-01T04:59:45.013Z,99552.11
2018-10-01T05:02:14.072Z,99545.96
2018-10-01T05:04:43.054Z,99551.56
2018-10-01T05:07:12.034Z,99554.42
2018-10-01T05:09:41.079Z,99551.78
2018-10-01T05:12:10.145Z,99553.88
2018-10-01T05:14:39.231Z,99558.14
2018-10-01T05:17:08.220Z,99554.42
2018-10-01T05:19:37.235Z,99560.47
2018-10-01T05:22:06.189Z,99561.08
2018-10-01T05:24:35.304Z,99568.27
2018-10-01T05:27:04.352Z,99573.89
2018-10-01T05:29:33.286Z,99568.32
2018-10-01T05:32:02.293Z,99571.52
2018-10-01T05:34:31.515Z,99576.05
2018-10-01T05:37:00.603Z,99570.99
2018-10-01T05:39:29.594Z,99570.44
2018-10-01T05:41:58.708Z,99576.28
2018-10-01T05:44:27.771Z,99588.55
2018-10-01T05:46:56.967Z,99590.91
2018-10-01T05:49:26.002Z,99588.77
2018-10-01T05:51:55.038Z,99589.05
2018-10-01T05:54:24.041Z,99590.09
2018-10-01T05:56:53.111Z,99602.11
2018-10-01T05:59:22.119Z,99599.42
2018-10-01T06:01:51.215Z,99600.77
2018-10-01T06:04:20.269Z,99603.95
2018-10-01T06:06:49.529Z,99607.95
2018-10-01T06:09:19.211Z,99607.39
2018-10-01T06:11:48.311Z,99614.80
2018-10-01T06:14:17.508Z,99614.30
2018-10-01T06:16:46.748Z,99609.73
2018-10-01T06:19:15.799Z,99607.84
2018-10-01T06:21:44.844Z,99622.20
2018-10-01T06:24:13.874Z,99624.28
2018-10-01T06:26:42.996Z,99619.20
2018-10-01T06:29:11.969Z,99623.14
2018-10-01T06:31:42.427Z,99631.36
2018-10-01T06:34:11.523Z,99627.55
2018-10-01T06:36:40.557Z,99630.48
2018-10-01T06:39:10.747Z,99634.68
2018-10-01T06:41:39.968Z,99642.66
2018-10-01T06:44:09.383Z,99640.75
2018-10-01T06:46:38.438Z,99642.87
2018-10-01T06:49:07.448Z,99640.47
2018-10-01T06:51:36.483Z,99638.73
2018-10-01T06:54:05.670Z,99641.86
2018-10-01T06:56:34.669Z,99645.28
2018-10-01T06:59:03.759Z,99652.06
2018-10-01T07:01:32.748Z,99655.88
2018-10-01T07:04:01.790Z,99645.35
2018-10-01T07:06:30.754Z,99651.61
2018-10-01T07:08:59.915Z,99652.34
2018-10-01T07:11:29.790Z,99657.87
2018-10-01T07:13:58.800Z,99662.66
2018-10-01T07:16:27.979Z,99673.02
2018-10-01T07:18:56.918Z,99671.23
2018-10-01T07:21:25.925Z,99671.03
2018-10-01T07:23:54.900Z,99668.73
2018-10-01T07:26:24.012Z,99669.31
2018-10-01T07:28:53.118Z,99671.34
2018-10-01T07:31:22.070Z,99672.81
2018-10-01T07:33:51.178Z,99673.64
2018-10-01T07:36:20.233Z,99663.66
2018-10-01T07:38:49.457Z,99670.48
2018-10-01T07:41:18.509Z,99658.08
2018-10-01T07:43:47.492Z,99656.93
2018-10-01T07:46:16.636Z,99664.89
2018-10-01T07:48:45.652Z,99667.48
2018-10-01T07:51:14.668Z,99667.77
2018-10-01T07:53:43.700Z,99669.50
2018-10-01T07:56:12.785Z,99669.31
2018-10-01T07:58:42.079Z,99667.08
2018-10-01T08:01:11.021Z,99674.27
2018-10-01T08:03:40.104Z,99677.43
2018-10-01T08:06:09.230Z,99680.54
2018-10-01T08:08:38.316Z,99678.44
2018-10-01T08:11:07.474Z,99685.10
2018-10-01T08:13:36.447Z,99682.75
2018-10-01T08:16:05.589Z,99681.08
2018-10-01T08:18:34.688Z,99684.12
2018-10-01T08:21:03.784Z,99687.61
2018-10-01T08:23:33.053Z,99683.33
2018-10-01T08:26:02.113Z,99690.95
2018-10-01T08:28:31.196Z,99693.88
2018-10-01T08:31:00.184Z,99694.44
2018-10-01T08:33:29.266Z,99700.48
2018-10-01T08:35:58.288Z,99700.05
2018-10-01T08:38:27.388Z,99700.62
2018-10-01T08:40:56.497Z,99687.70
2018-10-01T08:43:25.573Z,99695.20
2018-10-01T08:45:54.711Z,99694.97
2018-10-01T08:48:24.788Z,99697.70
2018-10-01T08:51:25.338Z,99698.71
2018-10-01T08:54:16.271Z,99697.14
2018-10-01T08:56:45.347Z,99706.81
2018-10-01T08:59:14.395Z,99701.78
2018-10-01T09:01:43.486Z,99698.80
2018-10-01T09:04:12.550Z,99697.31
2018-10-01T09:06:41.701Z,99698.27
2018-10-01T09:09:11.829Z,99697.45
2018-10-01T09:11:40.903Z,99697.70
2018-10-01T09:14:10.039Z,99689.28
2018-10-01T09:16:39.146Z,99696.07
2018-10-01T09:19:08.148Z,99690.89
2018-10-01T09:21:37.328Z,99696.66
2018-10-01T09:24:06.348Z,99696.91
2018-10-01T09:26:35.545Z,99690.02
2018-10-01T09:29:04.508Z,99686.53
2018-10-01T09:31:33.596Z,99690.07
2018-10-01T09:34:02.623Z,99686.57
2018-10-01T09:36:31.569Z,99697.20
2018-10-01T09:39:01.428Z,99689.46
2018-10-01T09:41:30.489Z,99694.83
2018-10-01T09:43:59.558Z,99689.07
2018-10-01T09:46:28.822Z,99694.84
2018-10-01T09:48:57.880Z,99694.97
2018-10-01T09:51:26.973Z,99704.66
2018-10-01T09:53:56.064Z,99701.14
2018-10-01T09:56:25.148Z,99700.67
2018-10-01T09:58:54.099Z,99708.95
2018-10-01T10:01:23.186Z,99706.50
2018-10-01T10:03:52.420Z,99704.81
2018-10-01T10:06:21.483Z,99711.59
2018-10-01T10:08:50.438Z,99712.37
2018-10-01T10:11:19.598Z,99716.82
2018-10-01T10:13:48.623Z,99718.90
2018-10-01T10:16:17.860Z,99714.36
2018-10-01T10:18:46.771Z,99716.03
2018-10-01T10:21:15.867Z,99724.35
2018-10-01T10:23:44.922Z,99714.94
2018-10-01T10:26:14.352Z,99719.63
2018-10-01T10:28:43.334Z,99722.39
2018-10-01T10:31:12.400Z,99717.55
2018-10-01T10:33:41.740Z,99720.14
2018-10-01T10:36:10.754Z,99719.69
2018-10-01T10:38:39.924Z,99716.59
2018-10-01T10:41:08.973Z,99707.05
2018-10-01T10:43:38.125Z,99710.73
2018-10-01T10:46:07.014Z,99710.44
2018-10-01T10:48:36.002Z,99717.73
2018-10-01T10:51:04.977Z,99714.90
2018-10-01T10:53:34.202Z,99713.68
2018-10-01T10:56:03.275Z,99706.86
2018-10-01T10:58:32.302Z,99711.27
2018-10-01T11:01:01.283Z,99709.69
2018-10-01T11:03:30.303Z,99709.68
2018-10-01T11:05:59.307Z,99709.18
2018-10-01T11:08:28.403Z,99711.59
2018-10-01T11:10:57.517Z,99711.89
2018-10-01T11:13:26.641Z,99717.40
2018-10-01T11:15:55.736Z,99718.44
2018-10-01T11:18:25.140Z,99715.61
2018-10-01T11:20:54.181Z,99720.05
2018-10-01T11:23:23.055Z,99724.69
2018-10-01T11:25:52.226Z,99721.67
2018-10-01T11:28:21.252Z,99723.56
2018-10-01T11:30:50.243Z,99723.34
2018-10-01T11:33:19.292Z,99714.60
2018-10-01T11:35:48.304Z,99713.42
2018-10-01T11:38:17.295Z,99714.30
2018-10-01T11:40:46.352Z,99718.23
2018-10-01T11:43:15.459Z,99716.27
2018-10-01T11:45:44.610Z,99714.60
2018-10-01T11:48:13.620Z,99722.87
2018-10-01T11:50:42.827Z,99725.84
2018-10-01T11:53:11.871Z,99720.97
2018-10-01T11:55:41.013Z,99722.56
2018-10-01T11:58:09.991Z,99719.03
2018-10-01T12:00:39.017Z,99717.94
2018-10-01T12:03:08.000Z,99716.50
2018-10-01T12:05:36.931Z,99717.89
2018-10-01T12:08:05.966Z,99717.31
2018-10-01T12:10:35.076Z,99721.94
2018-10-01T12:13:04.062Z,99717.34
2018-10-01T12:15:33.168Z,99723.30
2018-10-01T12:18:02.199Z,99725.28
2018-10-01T12:20:31.255Z,99722.94
2018-10-01T12:23:00.342Z,99720.05
2018-10-01T12:25:29.371Z,99714.11
2018-10-01T12:27:58.307Z,99725.03
2018-10-01T12:30:27.362Z,99733.58
2018-10-01T12:32:56.448Z,99730.23
2018-10-01T12:35:25.388Z,99727.43
2018-10-01T12:37:54.420Z,99731.14
2018-10-01T12:40:23.389Z,99734.96
2018-10-01T12:42:52.459Z,99729.31
2018-10-01T12:45:21.557Z,99736.42
2018-10-01T12:47:50.535Z,99737.91
2018-10-01T12:50:19.624Z,99729.28
2018-10-01T12:52:48.970Z,99735.55
2018-10-01T12:55:18.202Z,99732.98
2018-10-01T12:57:47.351Z,99735.34
2018-10-01T13:00:16.268Z,99732.42
2018-10-01T13:02:45.395Z,99736.91
2018-10-01T13:05:14.780Z,99740.23
2018-10-01T13:07:44.368Z,99735.24
2018-10-01T13:10:14.093Z,99733.89
2018-10-01T13:12:43.328Z,99733.69
2018-10-01T13:15:12.350Z,99729.05
2018-10-01T13:17:42.418Z,99723.55
2018-10-01T13:20:11.418Z,99732.27
2018-10-01T13:22:40.472Z,99735.28
2018-10-01T13:25:09.779Z,99738.02
2018-10-01T13:27:38.831Z,99736.39
2018-10-01T13:30:07.928Z,99746.49
2018-10-01T13:32:36.847Z,99738.11
2018-10-01T13:35:06.054Z,99748.09
2018-10-01T13:37:35.055Z,99750.66
2018-10-01T13:40:04.267Z,99755.31
2018-10-01T13:42:33.333Z,99758.14
2018-10-01T13:45:02.535Z,99759.13
2018-10-01T13:47:31.599Z,99762.63
2018-10-01T13:50:00.720Z,99758.70
2018-10-01T13:52:29.943Z,99762.75
2018-10-01T13:54:58.995Z,99761.55
2018-10-01T13:57:28.068Z,99757.87
2018-10-01T13:59:57.140Z,99757.31
2018-10-01T14:02:26.218Z,99761.92
2018-10-01T14:04:55.238Z,99765.97
2018-10-01T14:07:24.302Z,99761.65
2018-10-01T14:09:53.608Z,99766.97
2018-10-01T14:12:22.691Z,99770.97
2018-10-01T14:14:51.759Z,99774.55
2018-10-01T14:17:20.926Z,99768.83
2018-10-01T14:19:50.007Z,99765.83
2018-10-01T14:22:18.984Z,99768.89
2018-10-01T14:24:48.097Z,99768.80
2018-10-01T14:27:17.242Z,99784.25
2018-10-01T14:29:46.287Z,99776.59
2018-10-01T14:32:15.453Z,99784.76
2018-10-01T14:34:44.408Z,99784.00
2018-10-01T14:37:13.365Z,99784.98
2018-10-01T14:39:42.384Z,99792.50
2018-10-01T14:42:11.418Z,99793.44
2018-10-01T14:44:41.080Z,99794.34
2018-10-01T14:47:10.285Z,99798.02
2018-10-01T14:49:39.259Z,99789.13
2018-10-01T14:52:08.285Z,99794.03
2018-10-01T14:54:37.352Z,99793.38
2018-10-01T14:57:06.339Z,99793.00
2018-10-01T14:59:35.326Z,99796.92
2018-10-01T15:02:04.375Z,99799.36
2018-10-01T15:04:33.358Z,99796.72
2018-10-01T15:07:02.312Z,99805.95
2018-10-01T15:09:31.350Z,99809.53
2018-10-01T15:12:00.486Z,99809.22
2018-10-01T15:14:29.409Z,99814.98
2018-10-01T15:16:58.396Z,99817.20
2018-10-01T15:19:27.387Z,99815.27
2018-10-01T15:21:56.326Z,99833.02
2018-10-01T15:24:25.292Z,99835.47
2018-10-01T15:26:54.259Z,99839.74
2018-10-01T15:29:23.305Z,99831.17
2018-10-01T15:31:52.892Z,99850.14
2018-10-01T15:34:22.060Z,99851.70
2018-10-01T15:36:51.141Z,99856.59
2018-10-01T15:39:20.171Z,99855.30
2018-10-01T15:41:49.205Z,99857.66
2018-10-01T15:44:18.413Z,99866.58
2018-10-01T15:46:47.305Z,99870.98
2018-10-01T15:49:16.251Z,99867.52
2018-10-01T15:51:45.248Z,99868.93
2018-10-01T15:54:14.255Z,99872.48
2018-10-01T15:56:43.325Z,99864.47
2018-10-01T15:59:12.291Z,99877.08
2018-10-01T16:01:41.412Z,99867.25
2018-10-01T16:04:10.375Z,99870.24
2018-10-01T16:06:39.445Z,99871.58
2018-10-01T16:09:09.944Z,99870.76
2018-10-01T16:11:39.179Z,99864.95
2018-10-01T16:14:08.632Z,99867.08
2018-10-01T16:16:37.889Z,99874.33
2018-10-01T16:19:07.408Z,99884.59
2018-10-01T16:21:36.481Z,99877.63
2018-10-01T16:24:05.431Z,99883.02
2018-10-01T16:26:34.475Z,99882.25
2018-10-01T16:29:04.087Z,99884.08
2018-10-01T16:31:33.158Z,99881.98
2018-10-01T16:34:02.183Z,99887.55
2018-10-01T16:36:31.163Z,99890.84
2018-10-01T16:39:00.123Z,99891.30
2018-10-01T16:41:29.117Z,99891.09
2018-10-01T16:43:58.145Z,99898.30
2018-10-01T16:46:27.149Z,99900.13
2018-10-01T16:48:56.200Z,99905.77
2018-10-01T16:51:25.246Z,99906.25
2018-10-01T16:53:54.322Z,99903.36
2018-10-01T16:56:23.300Z,99915.45
2018-10-01T16:58:52.270Z,99912.02
2018-10-01T17:01:21.460Z,99918.00
2018-10-01T17:03:50.506Z,99922.90
2018-10-01T17:06:19.553Z,99921.56
2018-10-01T17:08:48.717Z,99926.38
2018-10-01T17:11:17.814Z,99929.08
2018-10-01T17:13:46.914Z,99931.52
2018-10-01T17:16:16.057Z,99932.87
2018-10-01T17:18:45.180Z,99930.25
2018-10-01T17:21:14.242Z,99938.80
2018-10-01T17:23:43.251Z,99947.12
2018-10-01T17:26:12.242Z,99950.86
2018-10-01T17:28:41.319Z,99948.17
2018-10-01T17:31:10.435Z,99959.19
2018-10-01T17:33:39.427Z,99957.59
2018-10-01T17:36:08.608Z,99958.14
2018-10-01T17:38:37.745Z,99962.71
2018-10-01T17:41:07.032Z,99969.95
2018-10-01T17:43:36.094Z,99970.52
2018-10-01T17:46:05.192Z,99973.74
2018-10-01T17:48:34.191Z,99975.08
2018-10-01T17:51:06.079Z,99975.05
2018-10-01T17:53:35.096Z,99977.47
2018-10-01T17:56:08.159Z,99977.73
2018-10-01T17:58:38.908Z,99978.83
2018-10-01T18:01:08.127Z,99978.28
2018-10-01T18:03:37.100Z,99979.80
2018-10-01T18:06:06.141Z,99980.28
2018-10-01T18:08:35.091Z,99979.74
2018-10-01T18:11:04.133Z,99978.84
2018-10-01T18:13:33.342Z,99985.52
2018-10-01T18:16:02.485Z,99971.83
2018-10-01T18:18:31.433Z,99992.97
2018-10-01T18:21:00.514Z,99990.03
2018-10-01T18:23:29.611Z,99990.58
2018-10-01T18:25:58.752Z,99992.89
2018-10-01T18:28:27.952Z,100000.44
2018-10-01T18:30:57.056Z,99998.05
2018-10-01T18:33:26.374Z,100005.12
2018-10-01T18:35:55.438Z,100006.76
2018-10-01T18:38:24.751Z,100005.69
2018-10-01T18:40:53.773Z,100015.58
2018-10-01T18:43:23.012Z,100012.95
2018-10-01T18:45:52.236Z,100012.18
2018-10-01T18:48:21.557Z,100015.70
2018-10-01T18:50:50.755Z,100003.66
2018-10-01T18:53:19.759Z,100009.05
2018-10-01T18:55:48.704Z,100022.70
2018-10-01T18:58:17.750Z,100016.53
2018-10-01T19:00:47.199Z,100024.05
2018-10-01T19:03:16.641Z,100030.76
2018-10-01T19:05:45.647Z,100031.08
2018-10-01T19:08:14.989Z,100035.94
2018-10-01T19:10:44.061Z,100041.81
2018-10-01T19:13:13.087Z,100043.71
2018-10-01T19:15:42.091Z,100035.42
2018-10-01T19:18:11.133Z,100041.30
2018-10-01T19:20:40.093Z,100041.31
2018-10-01T19:23:09.113Z,100040.25
2018-10-01T19:25:38.143Z,100044.55
2018-10-01T19:28:07.194Z,100049.93
2018-10-01T19:30:36.233Z,100049.93
2018-10-01T19:33:05.367Z,100052.86
2018-10-01T19:35:34.354Z,100050.77
2018-10-01T19:38:03.260Z,100057.72
2018-10-01T19:40:32.271Z,100055.06
2018-10-01T19:43:01.280Z,100064.40
2018-10-01T19:45:30.283Z,100062.00
2018-10-01T19:47:59.350Z,100075.91
2018-10-01T19:50:28.327Z,100066.80
2018-10-01T19:52:57.382Z,100077.23
2018-10-01T19:55:26.464Z,100085.77
2018-10-01T19:57:55.458Z,100083.90
2018-10-01T20:00:24.627Z,100085.73
2018-10-01T20:02:53.859Z,100087.07
2018-10-01T20:05:22.943Z,100084.70
2018-10-01T20:07:52.090Z,100094.59
2018-10-01T20:10:21.389Z,100091.11
2018-10-01T20:12:50.510Z,100093.24
2018-10-01T20:15:19.615Z,100089.52
2018-10-01T20:17:48.890Z,100095.13
2018-10-01T20:20:18.822Z,100095.67
2018-10-01T20:22:47.866Z,100097.28
2018-10-01T20:25:16.960Z,100100.72
2018-10-01T20:27:46.168Z,100096.71
2018-10-01T20:30:15.154Z,100105.25
2018-10-01T20:32:44.008Z,100103.64
2018-10-01T20:35:13.096Z,100102.05
2018-10-01T20:37:42.161Z,100108.48
2018-10-01T20:40:11.191Z,100111.95
2018-10-01T20:42:40.294Z,100110.07
2018-10-01T20:45:09.332Z,100117.30
2018-10-01T20:47:38.440Z,100116.50
2018-10-01T20:50:07.671Z,100115.17
2018-10-01T20:52:36.676Z,100117.28
2018-10-01T20:55:05.701Z,100118.37
2018-10-01T20:57:34.691Z,100117.28
2018-10-01T21:00:03.734Z,100112.19
2018-10-01T21:02:32.851Z,100118.09
2018-10-01T21:05:01.772Z,100126.13
2018-10-01T21:07:30.724Z,100125.59
2018-10-01T21:09:59.721Z,100129.61
2018-10-01T21:12:28.755Z,100128.00
2018-10-01T21:14:57.718Z,100137.91
2018-10-01T21:17:26.688Z,100136.56
2018-10-01T21:19:55.768Z,100139.23
2018-10-01T21:22:24.834Z,100155.05
2018-10-01T21:24:53.879Z,100147.56
2018-10-01T21:27:23.009Z,100162.27
2018-10-01T21:29:52.062Z,100159.86
2018-10-01T21:32:21.090Z,100161.19
2018-10-01T21:34:50.221Z,100163.34
2018-10-01T21:37:19.170Z,100171.37
2018-10-01T21:40:00.135Z,100170.83
2018-10-01T21:42:29.655Z,100166.56
2018-10-01T21:44:59.673Z,100175.93
2018-10-01T21:47:29.354Z,100171.64
2018-10-01T21:49:58.724Z,100171.10
2018-10-01T21:52:28.296Z,100173.78
2018-10-01T21:54:57.654Z,100179.66
2018-10-01T21:57:26.688Z,100174.32
2018-10-01T21:59:55.692Z,100175.13
2018-10-01T22:02:24.893Z,100180.23
2018-10-01T22:04:53.886Z,100180.75
2018-10-01T22:07:22.928Z,100183.17
2018-10-01T22:09:51.951Z,100191.19
2018-10-01T22:12:20.995Z,100190.91
2018-10-01T22:14:50.075Z,100190.66
2018-10-01T22:17:19.162Z,100183.97
2018-10-01T22:19:48.197Z,100193.05
2018-10-01T22:22:17.180Z,100192.79
2018-10-01T22:24:46.168Z,100189.83
2018-10-01T22:27:15.168Z,100197.34
2018-10-01T22:29:44.135Z,100199.98
2018-10-01T22:32:13.151Z,100207.20
2018-10-01T22:34:42.159Z,100197.59
2018-10-01T22:37:11.245Z,100211.50
2018-10-01T22:39:40.220Z,100199.47
2018-10-01T22:42:09.225Z,100199.47
2018-10-01T22:44:38.240Z,100196.23
2018-10-01T22:47:07.270Z,100198.89
2018-10-01T22:49:36.288Z,100195.41
2018-10-01T22:52:05.277Z,100190.86
2018-10-01T22:54:34.374Z,100191.64
2018-10-01T22:57:03.389Z,100194.56
2018-10-01T22:59:32.467Z,100197.20
2018-10-01T23:02:01.471Z,100201.98
2018-10-01T23:04:30.464Z,100202.25
2018-10-01T23:06:59.526Z,100204.92
2018-10-01T23:09:28.541Z,100204.65
2018-10-01T23:11:57.615Z,100213.99
2018-10-01T23:14:26.643Z,100214.78
2018-10-01T23:16:55.685Z,100212.91
2018-10-01T23:19:24.816Z,100219.02
2018-10-01T23:21:53.858Z,100223.81
2018-10-01T23:24:22.953Z,100220.34
2018-10-01T23:26:52.077Z,100228.33
2018-10-01T23:29:21.132Z,100221.60
2018-10-01T23:31:50.195Z,100229.36
2018-10-01T23:34:19.231Z,100232.33
2018-10-01T23:36:48.194Z,100232.02
2018-10-01T23:39:17.157Z,100234.45
2018-10-01T23:41:46.183Z,100234.19
2018-10-01T23:44:15.196Z,100238.74
2018-10-01T23:46:44.685Z,100241.42
2018-10-01T23:49:13.866Z,100238.25
2018-10-01T23:51:42.908Z,100245.73
2018-10-01T23:54:11.870Z,100246.77
2018-10-01T23:56:40.895Z,100250.52
2018-10-01T23:59:09.834Z,100243.83
